Terminal Aerodrome Forecast
Issued by NWS

Home | Current Version | Previous Version | Text Only | Print | Product List | Glossary On
Versions: 1 2 3 4 5 6 7 8 9 10 11 12 13 14 15 16
358
FTUS46 KSEW 232320
TAFPAE
TAF
KPAE 232320Z 2400/2424 31007KT P6SM FEW030 SCT100 BKN250
     FM240400 35008KT P6SM SCT030 BKN080 BKN250
     FM241200 19006KT P6SM OVC012
     FM242000 31006KT P6SM SCT025 BKN120=

USA.gov is the U.S. government's official web portal to all federal, state and local government web resources and services.